Portada
METAR-TAF:

METAR-TAF

Aeropuertos :

Aeropuerto de Bérgamo-Orio al Serio

Bérgamo, Italia

latitud: 45-40N, longitud: 009-42E, altitud: 238 m

Observación

El informe se hizo hace 11 minutos, a las 21:20 UTC
Viento 3 kt del norte
Temperatura 7°C
Humedad 76%
Presión 1028 hPa
Visibilidad: 7000 m
Nubes dispersas a una altura de 12000 ft

METAR: LIME 032120Z 01003KT 7000 SCT120 07/03 Q1028 NOSIG

Hora: 22:31 (21:31 UTC)

Pronóstico

El informe se hizo hace 4 horas y 31 minutos, a las 17:00 UTC
Pronóstico válido del 03 a las 18 UTC al 04 a las 18 UTC
Viento 5 kt con dirección variable
Visibilidad 10 km o más
sin nubes por debajo de 1500 m y sin presencia de cumulonimbus.

TAF: LIME 031700Z 0318/0418 VRB05KT CAVOK

Observaciones y pronósticos meteorológicos de más de 4000 aeropuertos (mensajes METAR y TAF).

Los puntos amarillos y rojos representan las estaciones disponibles.

Ponga el ratón en el punto deseado para ver el nombre de la estación.

Haga clic para ver las observaciones y los pronósticos meteorológicos.

Para cambiar el mapa : haga clic en los botones verdes con una cruz de color negro para hacer un zoom, en el botón verde con un guión para alejar o en las flechas verdes para mapas adyacentes.


METAR-TAF: